Time;durP1;ratioP1;P1;durP2;ratioP2;P2;SDS_P1;SDS_P2;PMS_P1;PMS_P2;Temp;Humidity;BMP_temperature;BMP_pressure;BME280_temperature;BME280_humidity;BME280_pressure;Samples;Min_cycle;Max_cycle;Signal;HPM_P1;HPM_P2
2021/09/26 00:00:25;;;;;;;8.60;7.70;;;18.60;76.70;;;;;;4969228;28;20070;-79
2021/09/26 00:02:51;;;;;;;7.57;6.80;;;18.60;76.70;;;;;;4987516;28;20039;-80
2021/09/26 00:05:17;;;;;;;7.80;7.10;;;18.60;76.70;;;;;;4988793;28;20129;-80
2021/09/26 00:07:43;;;;;;;6.95;6.25;;;18.50;76.60;;;;;;5005225;28;20350;-80
2021/09/26 00:10:11;;;;;;;6.95;6.13;;;18.50;76.60;;;;;;4988489;28;20038;-80
2021/09/26 00:12:37;;;;;;;8.40;7.60;;;18.40;76.50;;;;;;4971309;28;20096;-79
2021/09/26 00:15:08;;;;;;;8.27;7.47;;;18.50;76.70;;;;;;4989247;28;20026;-79
2021/09/26 00:17:34;;;;;;;8.10;7.30;;;18.40;76.60;;;;;;4989885;28;20464;-78
2021/09/26 00:20:00;;;;;;;8.35;7.55;;;18.40;76.60;;;;;;4973261;28;20494;-79
2021/09/26 00:22:27;;;;;;;7.97;7.20;;;18.40;76.60;;;;;;4990986;28;20080;-78
2021/09/26 00:24:53;;;;;;;7.82;7.10;;;18.30;76.50;;;;;;4974801;28;20073;-79
2021/09/26 00:27:19;;;;;;;9.02;8.13;;;18.30;76.60;;;;;;5007233;28;20126;-79
2021/09/26 00:29:45;;;;;;;8.32;7.53;;;18.30;76.60;;;;;;4976561;28;20121;-79
2021/09/26 00:32:11;;;;;;;8.75;7.82;;;18.30;76.60;;;;;;4970961;28;20042;-80
2021/09/26 00:34:37;;;;;;;8.15;7.43;;;18.30;76.70;;;;;;4970922;28;20034;-79
2021/09/26 00:37:03;;;;;;;7.90;7.10;;;18.20;76.50;;;;;;4954157;28;20046;-79
2021/09/26 00:39:30;;;;;;;8.60;7.68;;;18.20;76.60;;;;;;4970573;28;20038;-79
2021/09/26 00:41:57;;;;;;;8.10;7.30;;;18.20;76.60;;;;;;4985725;28;20123;-79
2021/09/26 00:44:23;;;;;;;12.18;9.30;;;18.20;76.60;;;;;;4968746;28;20035;-79
2021/09/26 00:46:49;;;;;;;10.35;8.70;;;18.20;76.70;;;;;;4960671;28;20044;-79
2021/09/26 00:49:16;;;;;;;9.32;8.20;;;18.20;76.70;;;;;;4997613;28;20160;-79
2021/09/26 00:51:44;;;;;;;9.60;8.60;;;18.10;76.60;;;;;;4990175;28;20117;-80
2021/09/26 00:54:11;;;;;;;9.55;8.63;;;18.10;76.60;;;;;;4984844;28;20369;-80
2021/09/26 00:56:37;;;;;;;8.95;8.15;;;18.10;76.60;;;;;;5008785;28;20052;-79
2021/09/26 00:59:04;;;;;;;8.82;8.02;;;18.10;76.60;;;;;;4982663;28;20512;-80
2021/09/26 01:01:30;;;;;;;9.40;8.38;;;18.00;76.40;;;;;;4971443;28;20038;-79
2021/09/26 01:03:57;;;;;;;9.40;8.50;;;18.00;76.40;;;;;;4988778;28;20121;-79
2021/09/26 01:06:35;;;;;;;10.00;9.07;;;18.00;76.40;;;;;;4988933;28;20022;-78
2021/09/26 01:09:32;;;;;;;9.23;8.32;;;18.00;76.50;;;;;;4996285;28;20041;-79
2021/09/26 01:12:13;;;;;;;9.30;8.43;;;17.90;76.30;;;;;;5006503;28;20030;-79
2021/09/26 01:15:00;;;;;;;9.30;8.40;;;17.90;76.40;;;;;;5006583;28;20065;-79
2021/09/26 01:17:56;;;;;;;10.05;9.05;;;17.90;76.40;;;;;;4990384;28;20037;-78
2021/09/26 01:20:53;;;;;;;9.43;8.57;;;17.90;76.40;;;;;;4974167;28;20045;-78
2021/09/26 01:23:31;;;;;;;10.23;9.23;;;17.80;76.20;;;;;;4984700;28;20058;-79
2021/09/26 01:26:22;;;;;;;10.18;9.18;;;17.80;76.20;;;;;;4986818;28;20034;-78
2021/09/26 01:29:36;;;;;;;9.85;8.88;;;17.80;76.30;;;;;;4992746;28;20127;-77
2021/09/26 01:32:03;;;;;;;;;;;17.70;76.20;;;;;;4918816;28;20048;-78
2021/09/26 01:34:51;;;;;;;10.50;9.30;;;17.70;76.10;;;;;;4992586;28;20000;-79
2021/09/26 01:37:30;;;;;;;11.25;10.15;;;17.70;76.10;;;;;;5012062;28;20048;-78
2021/09/26 01:40:08;;;;;;;10.68;9.65;;;17.60;76.00;;;;;;5008571;28;20058;-77
2021/09/26 01:42:46;;;;;;;10.75;9.57;;;17.60;76.00;;;;;;5011075;28;20215;-78
2021/09/26 01:45:26;;;;;;;11.63;10.52;;;17.50;75.90;;;;;;5018053;28;20060;-78
2021/09/26 01:48:06;;;;;;;11.35;10.15;;;17.50;76.00;;;;;;4999279;28;20513;-78
2021/09/26 01:50:34;;;;;;;11.40;9.88;;;17.50;76.00;;;;;;4996019;28;20553;-78
2021/09/26 01:53:01;;;;;;;12.20;10.85;;;17.40;75.90;;;;;;4978998;28;20037;-78
2021/09/26 01:55:28;;;;;;;11.75;10.55;;;17.40;75.90;;;;;;4994476;28;20402;-78
2021/09/26 01:57:57;;;;;;;11.57;10.48;;;17.40;76.00;;;;;;5010975;28;20516;-78
2021/09/26 02:00:24;;;;;;;12.85;11.57;;;17.30;75.80;;;;;;4994195;28;20030;-78
2021/09/26 02:02:53;;;;;;;12.68;11.40;;;17.30;75.80;;;;;;4993878;28;20076;-79
2021/09/26 02:05:19;;;;;;;13.05;11.68;;;17.20;75.70;;;;;;4993838;28;20026;-78
2021/09/26 02:07:51;;;;;;;13.55;12.15;;;17.20;75.80;;;;;;4993687;28;20068;-78
2021/09/26 02:10:20;;;;;;;13.25;11.75;;;17.20;75.80;;;;;;4994025;28;20045;-78
2021/09/26 02:12:47;;;;;;;13.30;11.77;;;17.10;75.70;;;;;;5011548;28;20058;-78
2021/09/26 02:15:20;;;;;;;13.82;12.35;;;17.10;75.70;;;;;;4993877;28;20426;-78
2021/09/26 02:17:47;;;;;;;15.18;12.77;;;17.00;76.10;;;;;;4977410;28;20044;-78
2021/09/26 02:20:17;;;;;;;12.95;11.65;;;17.00;75.60;;;;;;5009678;28;20033;-78
2021/09/26 02:22:44;;;;;;;12.68;11.43;;;17.00;75.70;;;;;;5010139;28;20029;-78
2021/09/26 02:25:12;;;;;;;13.32;12.02;;;16.90;75.50;;;;;;4993655;28;20057;-78
2021/09/26 02:27:41;;;;;;;13.88;12.38;;;16.90;75.60;;;;;;4992788;28;20084;-78
2021/09/26 02:30:08;;;;;;;13.90;12.48;;;16.90;75.70;;;;;;4989929;28;20034;-78
2021/09/26 02:32:34;;;;;;;14.52;12.48;;;16.80;75.50;;;;;;5007133;28;20141;-77
2021/09/26 02:35:00;;;;;;;14.43;12.60;;;16.80;75.60;;;;;;5011067;28;20033;-79
2021/09/26 02:37:27;;;;;;;15.35;12.55;;;16.80;75.70;;;;;;4993522;28;20458;-79
2021/09/26 02:39:53;;;;;;;15.35;13.00;;;16.70;75.60;;;;;;4993253;28;20033;-78
2021/09/26 02:42:47;;;;;;;14.13;12.57;;;16.70;75.60;;;;;;5011310;28;20029;-78
2021/09/26 02:45:21;;;;;;;14.85;13.05;;;16.60;75.50;;;;;;4993134;28;20084;-80
2021/09/26 02:47:59;;;;;;;16.95;14.85;;;16.60;75.50;;;;;;4994035;28;20053;-78
2021/09/26 02:50:25;;;;;;;14.82;11.98;;;16.60;75.60;;;;;;5011722;28;20303;-79
2021/09/26 02:52:53;;;;;;;16.48;13.43;;;16.50;75.40;;;;;;4993761;28;20113;-80
2021/09/26 02:55:19;;;;;;;14.18;12.70;;;16.50;75.50;;;;;;4993693;28;20359;-79
2021/09/26 02:57:45;;;;;;;17.30;13.57;;;16.50;75.50;;;;;;5011041;28;20106;-79
2021/09/26 03:00:13;;;;;;;15.45;13.82;;;16.50;75.60;;;;;;4993325;28;20029;-79
2021/09/26 03:02:39;;;;;;;15.00;13.00;;;16.40;75.50;;;;;;4993153;28;20034;-79
2021/09/26 03:05:07;;;;;;;14.27;12.75;;;16.40;75.50;;;;;;5010197;28;20516;-80
2021/09/26 03:07:33;;;;;;;17.67;15.50;;;16.40;75.50;;;;;;4992343;28;20030;-79
2021/09/26 03:10:00;;;;;;;16.77;14.98;;;16.30;75.40;;;;;;5010597;28;20034;-80
2021/09/26 03:12:26;;;;;;;16.15;14.02;;;16.30;75.40;;;;;;5009986;28;20026;-79
2021/09/26 03:14:52;;;;;;;17.23;14.27;;;16.30;75.40;;;;;;5010090;28;20091;-79
2021/09/26 03:17:18;;;;;;;18.05;15.23;;;16.20;75.30;;;;;;5010586;28;20109;-79
2021/09/26 03:19:45;;;;;;;16.73;14.93;;;16.20;75.40;;;;;;5010481;28;20320;-79
2021/09/26 03:22:12;;;;;;;15.95;14.20;;;16.20;75.40;;;;;;4992602;28;20509;-79
2021/09/26 03:24:39;;;;;;;16.60;14.70;;;16.10;75.30;;;;;;5010163;28;20030;-78
2021/09/26 03:27:09;;;;;;;16.63;14.75;;;16.10;75.30;;;;;;5010131;28;20529;-79
2021/09/26 03:29:37;;;;;;;17.20;15.48;;;16.10;75.40;;;;;;4992635;28;20473;-78
2021/09/26 03:32:03;;;;;;;18.42;15.50;;;16.10;75.40;;;;;;4992781;28;20109;-78
2021/09/26 03:34:29;;;;;;;18.00;15.80;;;16.00;75.30;;;;;;4992107;28;20030;-79
2021/09/26 03:36:55;;;;;;;19.05;16.65;;;16.00;75.30;;;;;;4992149;28;20048;-80
2021/09/26 03:39:21;;;;;;;19.70;16.40;;;16.00;75.40;;;;;;4992331;28;20203;-80
2021/09/26 03:41:47;;;;;;;20.88;16.70;;;15.90;75.30;;;;;;5009777;28;20494;-79
2021/09/26 03:44:13;;;;;;;20.27;16.60;;;16.00;75.50;;;;;;5009888;28;20462;-80
2021/09/26 03:46:39;;;;;;;17.98;15.70;;;15.90;75.30;;;;;;4992070;28;20382;-79
2021/09/26 03:49:05;;;;;;;19.90;17.75;;;15.90;75.40;;;;;;5009868;28;20099;-78
2021/09/26 03:51:31;;;;;;;19.23;17.02;;;15.90;75.50;;;;;;4992401;28;20022;-78
2021/09/26 03:53:58;;;;;;;18.63;16.20;;;15.90;75.50;;;;;;4992122;28;20441;-78
2021/09/26 03:56:23;;;;;;;20.00;16.85;;;15.90;75.50;;;;;;5010027;28;20107;-78
2021/09/26 03:58:50;;;;;;;22.02;18.48;;;15.80;75.40;;;;;;4975811;28;20045;-79
2021/09/26 04:01:16;;;;;;;21.77;17.60;;;15.80;75.40;;;;;;5009950;28;20072;-78
2021/09/26 04:03:42;;;;;;;20.92;17.33;;;15.70;75.20;;;;;;5010276;28;20053;-78
2021/09/26 04:06:10;;;;;;;19.00;16.73;;;15.70;75.30;;;;;;5010079;28;20088;-79
2021/09/26 04:08:40;;;;;;;20.38;17.20;;;15.70;75.30;;;;;;4991854;28;20501;-79
2021/09/26 04:11:07;;;;;;;20.73;17.98;;;15.70;75.30;;;;;;5009749;28;20453;-79
2021/09/26 04:13:33;;;;;;;24.35;19.27;;;15.70;75.30;;;;;;4992199;28;20054;-79
2021/09/26 04:15:59;;;;;;;20.27;17.00;;;15.60;75.20;;;;;;5009833;28;20037;-78
2021/09/26 04:18:25;;;;;;;21.65;18.20;;;15.60;75.20;;;;;;4992172;28;20049;-78
2021/09/26 04:20:51;;;;;;;21.95;18.27;;;15.60;75.20;;;;;;4992656;28;20089;-78
2021/09/26 04:23:17;;;;;;;20.15;16.65;;;15.60;75.20;;;;;;5014589;28;20026;-78
2021/09/26 04:25:43;;;;;;;23.10;20.63;;;15.50;75.10;;;;;;5014610;28;20501;-78
2021/09/26 04:28:09;;;;;;;21.42;18.67;;;15.50;75.10;;;;;;4981657;28;20022;-78
2021/09/26 04:30:36;;;;;;;22.98;18.65;;;15.50;75.20;;;;;;4998323;28;20038;-78
2021/09/26 04:33:03;;;;;;;20.75;18.23;;;15.40;75.00;;;;;;4997840;28;20040;-79
2021/09/26 04:35:30;;;;;;;24.63;18.23;;;15.40;75.00;;;;;;4997858;28;20466;-79
2021/09/26 04:37:57;;;;;;;24.33;19.27;;;15.40;75.10;;;;;;4980915;28;20037;-78
2021/09/26 04:40:24;;;;;;;22.17;19.27;;;15.40;75.20;;;;;;5014014;28;20316;-80
2021/09/26 04:42:50;;;;;;;24.13;20.23;;;15.40;75.30;;;;;;4996075;28;20025;-79
2021/09/26 04:45:16;;;;;;;22.23;19.88;;;15.40;75.30;;;;;;4995759;28;20117;-77
2021/09/26 04:47:43;;;;;;;23.38;19.40;;;15.40;75.40;;;;;;5009738;28;20569;-78
2021/09/26 04:50:10;;;;;;;24.17;18.92;;;15.30;75.20;;;;;;5009641;28;20532;-77
2021/09/26 04:52:37;;;;;;;22.52;19.33;;;15.30;75.30;;;;;;5010860;28;20022;-80
2021/09/26 04:55:05;;;;;;;22.42;18.35;;;15.40;75.40;;;;;;5025649;28;20034;-77
2021/09/26 04:57:31;;;;;;;23.08;19.63;;;15.30;75.30;;;;;;5011563;28;20559;-79
2021/09/26 04:59:57;;;;;;;23.85;19.23;;;15.30;75.30;;;;;;5030140;28;20049;-78
2021/09/26 05:02:23;;;;;;;21.35;17.33;;;15.30;75.30;;;;;;5008166;28;20033;-79
2021/09/26 05:04:49;;;;;;;21.88;18.02;;;15.30;75.30;;;;;;5009424;28;20029;-79
2021/09/26 05:07:15;;;;;;;19.38;17.25;;;15.30;75.30;;;;;;5008050;28;20135;-78
2021/09/26 05:09:41;;;;;;;23.95;19.48;;;15.30;75.30;;;;;;4989128;28;20026;-80
2021/09/26 05:12:08;;;;;;;20.40;17.58;;;15.20;75.10;;;;;;4988541;28;20504;-79
2021/09/26 05:14:34;;;;;;;22.92;18.38;;;15.20;75.10;;;;;;4988620;28;20490;-79
2021/09/26 05:17:00;;;;;;;20.42;17.83;;;15.20;75.10;;;;;;4981063;28;20117;-80
2021/09/26 05:19:26;;;;;;;21.30;17.48;;;15.20;75.00;;;;;;4991134;28;20564;-78
2021/09/26 05:21:52;;;;;;;22.67;17.77;;;15.20;75.10;;;;;;4990387;28;20084;-77
2021/09/26 05:24:18;;;;;;;21.52;17.75;;;15.10;74.90;;;;;;5006730;28;20104;-79
2021/09/26 05:26:44;;;;;;;19.90;16.85;;;15.10;74.90;;;;;;5006344;28;20032;-78
2021/09/26 05:29:10;;;;;;;21.27;18.08;;;15.10;74.90;;;;;;4989909;28;20124;-81
2021/09/26 05:31:38;;;;;;;20.42;16.98;;;15.10;74.90;;;;;;5008167;28;20029;-78
2021/09/26 05:34:04;;;;;;;20.58;16.58;;;15.10;75.00;;;;;;4971442;28;20034;-79
2021/09/26 05:36:30;;;;;;;21.50;17.08;;;15.00;74.80;;;;;;4988124;28;20037;-79
2021/09/26 05:38:56;;;;;;;20.45;16.95;;;15.00;74.80;;;;;;4987810;28;20046;-78
2021/09/26 05:41:23;;;;;;;18.73;15.55;;;14.90;74.70;;;;;;4986447;28;20038;-79
2021/09/26 05:43:49;;;;;;;19.27;16.30;;;15.00;74.90;;;;;;4986033;28;20066;-79
2021/09/26 05:46:15;;;;;;;19.65;17.25;;;14.90;74.80;;;;;;4973748;28;20490;-79
2021/09/26 05:48:41;;;;;;;19.23;16.45;;;14.90;74.80;;;;;;4977893;28;20348;-78
2021/09/26 05:51:07;;;;;;;17.70;15.70;;;14.80;74.70;;;;;;4970545;28;20045;-79
2021/09/26 05:53:33;;;;;;;20.00;16.48;;;14.90;74.90;;;;;;4983138;28;20535;-80
2021/09/26 05:55:59;;;;;;;18.90;16.23;;;14.80;74.70;;;;;;5005959;28;20034;-79
2021/09/26 05:58:25;;;;;;;20.58;16.73;;;14.80;74.80;;;;;;5004025;28;20068;-81
2021/09/26 06:00:51;;;;;;;20.75;16.35;;;14.80;74.80;;;;;;5007159;28;20367;-78
2021/09/26 06:03:17;;;;;;;17.58;15.40;;;14.80;74.80;;;;;;5006188;28;20037;-80
2021/09/26 06:05:44;;;;;;;16.92;14.63;;;14.80;74.80;;;;;;4989495;28;20038;-79
2021/09/26 06:08:11;;;;;;;18.95;16.60;;;14.80;74.80;;;;;;4988744;28;20033;-78
2021/09/26 06:10:38;;;;;;;16.20;14.40;;;14.70;74.60;;;;;;5007329;28;20058;-77
2021/09/26 06:13:04;;;;;;;19.48;15.70;;;14.70;74.60;;;;;;4989354;28;20037;-79
2021/09/26 06:15:31;;;;;;;20.50;15.98;;;14.70;74.60;;;;;;4989430;28;20029;-77
2021/09/26 06:17:58;;;;;;;18.98;16.80;;;14.70;75.40;;;;;;4981910;28;20030;-76
2021/09/26 06:20:24;;;;;;;18.30;15.52;;;14.70;75.10;;;;;;4985906;28;20074;-78
2021/09/26 06:22:50;;;;;;;19.95;17.48;;;14.70;75.60;;;;;;4985484;28;20046;-77
2021/09/26 06:25:16;;;;;;;16.23;13.88;;;14.70;75.10;;;;;;4999522;28;20030;-80
2021/09/26 06:27:43;;;;;;;17.98;15.55;;;14.70;75.00;;;;;;4978274;28;20034;-78
2021/09/26 06:30:10;;;;;;;22.30;17.85;;;14.70;75.00;;;;;;5007027;28;20491;-78
2021/09/26 06:32:36;;;;;;;22.13;18.23;;;14.60;75.30;;;;;;4985426;28;20125;-78
2021/09/26 06:35:05;;;;;;;23.27;17.73;;;14.70;75.90;;;;;;4986631;28;20598;-78
2021/09/26 06:37:30;;;;;;;18.95;16.15;;;14.80;76.50;;;;;;4987289;28;20037;-78
2021/09/26 06:39:57;;;;;;;21.55;17.85;;;14.80;76.70;;;;;;4986152;28;20421;-78
2021/09/26 06:42:23;;;;;;;20.35;16.75;;;14.80;76.90;;;;;;4973300;28;20537;-78
2021/09/26 06:44:49;;;;;;;21.13;17.48;;;14.90;77.00;;;;;;4988825;28;20240;-80
2021/09/26 06:47:16;;;;;;;31.48;20.65;;;15.00;77.10;;;;;;4989308;28;20588;-78
2021/09/26 06:49:42;;;;;;;33.72;20.33;;;15.00;77.10;;;;;;4985984;28;20545;-78
2021/09/26 06:52:08;;;;;;;34.13;21.40;;;15.10;77.60;;;;;;4970086;28;20030;-79
2021/09/26 06:54:34;;;;;;;29.75;21.73;;;15.20;78.00;;;;;;4969925;28;20121;-79
2021/09/26 06:57:00;;;;;;;27.67;18.92;;;15.20;78.20;;;;;;4969796;28;20125;-78
2021/09/26 06:59:26;;;;;;;29.48;20.48;;;15.30;78.50;;;;;;4987029;28;20041;-79
2021/09/26 07:01:53;;;;;;;25.02;17.73;;;15.40;78.70;;;;;;4989388;28;20030;-78
2021/09/26 07:04:19;;;;;;;26.75;19.77;;;15.50;78.80;;;;;;4954769;28;20026;-78
2021/09/26 07:06:45;;;;;;;23.95;18.38;;;15.50;78.60;;;;;;4984833;28;20033;-78
2021/09/26 07:09:11;;;;;;;24.08;17.70;;;15.60;78.70;;;;;;4985724;28;20038;-78
2021/09/26 07:11:37;;;;;;;23.17;18.10;;;15.60;78.50;;;;;;4968571;28;20034;-78
2021/09/26 07:14:02;;;;;;;19.88;17.65;;;15.70;78.50;;;;;;4985808;28;20041;-78
2021/09/26 07:16:29;;;;;;;20.48;16.70;;;15.70;78.40;;;;;;4988362;28;20037;-78
2021/09/26 07:18:55;;;;;;;20.10;16.35;;;15.70;78.30;;;;;;4988142;28;20296;-78
2021/09/26 07:21:21;;;;;;;21.50;15.95;;;15.80;78.40;;;;;;4988727;28;20077;-77
2021/09/26 07:23:47;;;;;;;23.92;17.90;;;15.80;78.30;;;;;;4988307;28;20030;-77
2021/09/26 07:26:13;;;;;;;23.13;16.45;;;15.80;78.20;;;;;;4987501;28;20026;-77
2021/09/26 07:28:40;;;;;;;19.13;16.13;;;15.80;78.00;;;;;;4987991;28;20034;-77
2021/09/26 07:31:06;;;;;;;22.55;15.95;;;15.80;77.90;;;;;;5005786;28;20042;-78
2021/09/26 07:33:32;;;;;;;24.08;18.00;;;15.80;77.90;;;;;;4988029;28;20037;-79
2021/09/26 07:35:58;;;;;;;20.52;16.88;;;15.80;77.80;;;;;;4971512;28;20095;-78
2021/09/26 07:38:24;;;;;;;22.25;16.50;;;15.80;77.70;;;;;;4996793;28;20031;-78
2021/09/26 07:40:50;;;;;;;25.73;18.77;;;15.90;77.90;;;;;;4952910;28;20066;-78
2021/09/26 07:43:16;;;;;;;21.05;16.95;;;15.90;77.80;;;;;;4984744;28;20034;-78
2021/09/26 07:45:42;;;;;;;23.75;17.23;;;15.90;77.80;;;;;;4986365;28;20026;-77
2021/09/26 07:48:08;;;;;;;23.95;18.45;;;15.90;77.60;;;;;;4987358;28;20045;-77
2021/09/26 07:50:34;;;;;;;25.75;19.35;;;15.90;77.60;;;;;;4988059;28;20053;-77
2021/09/26 07:53:00;;;;;;;23.23;17.60;;;15.90;77.60;;;;;;5004584;28;20049;-77
2021/09/26 07:55:26;;;;;;;25.52;19.08;;;16.00;77.70;;;;;;4972519;28;20026;-77
2021/09/26 07:57:52;;;;;;;23.35;18.17;;;16.00;77.60;;;;;;5023861;28;20023;-78
2021/09/26 08:00:19;;;;;;;23.17;18.27;;;16.00;77.50;;;;;;5012524;28;20038;-77
2021/09/26 08:02:45;;;;;;;21.77;16.92;;;16.00;77.40;;;;;;4977716;28;20041;-78
2021/09/26 08:05:12;;;;;;;20.92;17.88;;;16.00;77.40;;;;;;5021339;28;20048;-78
2021/09/26 08:07:39;;;;;;;20.30;16.83;;;16.10;77.50;;;;;;4990912;28;20044;-78
2021/09/26 08:10:08;;;;;;;23.52;19.05;;;16.20;77.60;;;;;;4972846;28;20113;-78
2021/09/26 08:12:34;;;;;;;21.83;18.17;;;16.20;77.50;;;;;;4972078;28;20030;-77
2021/09/26 08:15:00;;;;;;;25.08;21.00;;;16.20;77.40;;;;;;4972582;28;20457;-78
2021/09/26 08:17:26;;;;;;;26.67;20.05;;;16.30;77.60;;;;;;5000522;28;20133;-76
2021/09/26 08:19:52;;;;;;;25.42;20.15;;;16.40;77.90;;;;;;4971541;28;20038;-77
2021/09/26 08:22:18;;;;;;;24.23;18.73;;;16.50;78.00;;;;;;4991906;28;20506;-79
2021/09/26 08:24:44;;;;;;;22.42;19.30;;;16.50;77.90;;;;;;4991856;28;20140;-79
2021/09/26 08:27:11;;;;;;;23.48;18.70;;;16.60;78.50;;;;;;4991817;28;20057;-77
2021/09/26 08:29:37;;;;;;;23.08;19.33;;;16.60;77.90;;;;;;5000697;28;20040;-77
2021/09/26 08:32:05;;;;;;;21.98;18.42;;;16.70;78.00;;;;;;4994445;28;20053;-78
2021/09/26 08:34:31;;;;;;;21.73;18.05;;;16.70;77.90;;;;;;4971906;28;20072;-78
2021/09/26 08:36:57;;;;;;;21.90;17.67;;;16.80;77.90;;;;;;4988620;28;20065;-78
2021/09/26 08:39:23;;;;;;;21.63;17.85;;;16.80;77.80;;;;;;4989102;28;20042;-78
2021/09/26 08:41:54;;;;;;;21.33;17.08;;;16.90;77.90;;;;;;4991757;28;20273;-78
2021/09/26 08:44:24;;;;;;;18.38;16.40;;;16.90;77.90;;;;;;5009396;28;20073;-78
2021/09/26 08:46:52;;;;;;;18.08;15.52;;;17.00;77.90;;;;;;4991821;28;20485;-79
2021/09/26 08:49:20;;;;;;;21.55;16.25;;;17.00;77.80;;;;;;4975635;28;20058;-79
2021/09/26 08:51:48;;;;;;;17.27;15.45;;;17.00;77.70;;;;;;4983504;28;20097;-79
2021/09/26 08:54:14;;;;;;;18.70;16.17;;;17.00;77.60;;;;;;4990667;28;20242;-78
2021/09/26 08:56:41;;;;;;;18.95;14.77;;;17.00;77.50;;;;;;4972273;28;20145;-78
2021/09/26 08:59:09;;;;;;;15.73;13.73;;;17.10;77.60;;;;;;4989324;28;20112;-79
2021/09/26 09:01:35;;;;;;;16.05;13.57;;;17.10;77.50;;;;;;4989493;28;20410;-78
2021/09/26 09:04:02;;;;;;;17.27;15.35;;;17.10;77.40;;;;;;4971573;28;20058;-78
2021/09/26 09:06:44;;;;;;;15.60;13.27;;;17.20;77.50;;;;;;4988904;28;20093;-78
2021/09/26 09:09:19;;;;;;;16.60;14.00;;;17.10;77.20;;;;;;4985896;28;20466;-78
2021/09/26 09:12:02;;;;;;;16.42;14.20;;;17.20;77.30;;;;;;4991921;28;20430;-78
2021/09/26 09:14:57;;;;;;;16.05;14.32;;;17.20;77.20;;;;;;4989723;28;20204;-78
2021/09/26 09:17:26;;;;;;;15.25;12.60;;;17.20;77.10;;;;;;5000531;28;20042;-77
2021/09/26 09:20:10;;;;;;;13.57;11.40;;;17.20;77.00;;;;;;4994041;28;20033;-78
2021/09/26 09:22:36;;;;;;;14.52;12.10;;;17.20;76.90;;;;;;4998310;28;20061;-79
2021/09/26 09:25:02;;;;;;;13.35;11.95;;;17.30;77.10;;;;;;5000826;28;20085;-78
2021/09/26 09:27:29;;;;;;;16.95;13.20;;;17.30;77.00;;;;;;4999182;28;20080;-77
2021/09/26 09:29:55;;;;;;;14.10;12.25;;;17.30;76.90;;;;;;4982664;28;20038;-78
2021/09/26 09:32:23;;;;;;;12.55;11.20;;;17.30;76.90;;;;;;4983072;28;20045;-78
2021/09/26 09:34:49;;;;;;;11.45;10.15;;;17.40;77.00;;;;;;5000678;28;20040;-77
2021/09/26 09:37:16;;;;;;;12.93;11.48;;;17.40;76.90;;;;;;4983083;28;20109;-78
2021/09/26 09:40:04;;;;;;;12.73;10.77;;;17.40;76.80;;;;;;4998903;28;20050;-77
2021/09/26 09:42:40;;;;;;;11.35;10.15;;;17.50;76.90;;;;;;4998746;28;20022;-78
2021/09/26 09:45:20;;;;;;;9.35;8.35;;;17.50;76.70;;;;;;4982857;28;20046;-77
2021/09/26 09:48:15;;;;;;;9.55;8.65;;;17.60;76.80;;;;;;4995878;28;20046;-78
2021/09/26 09:50:46;;;;;;;12.07;10.48;;;17.60;76.60;;;;;;4983513;28;20038;-77
2021/09/26 09:53:18;;;;;;;11.15;9.68;;;17.70;76.70;;;;;;5002385;28;20030;-78
2021/09/26 09:55:45;;;;;;;;;;;17.70;76.60;;;;;;5020195;28;20042;-78
2021/09/26 09:58:16;;;;;;;12.05;9.95;;;17.70;76.50;;;;;;5002818;28;20305;-78
2021/09/26 10:01:03;;;;;;;13.98;10.50;;;17.80;76.50;;;;;;4987888;28;20060;-79
2021/09/26 10:03:52;;;;;;;9.68;8.45;;;17.90;76.50;;;;;;5003546;28;20113;-81
2021/09/26 10:06:20;;;;;;;9.38;8.35;;;17.90;76.40;;;;;;5002552;28;20113;-78
2021/09/26 10:08:47;;;;;;;9.80;8.25;;;18.00;76.40;;;;;;4991033;28;20034;-79
2021/09/26 10:11:13;;;;;;;9.43;8.48;;;18.00;76.40;;;;;;4983728;28;20123;-78
2021/09/26 10:13:39;;;;;;;9.98;8.95;;;18.10;76.40;;;;;;4978675;28;20062;-79
2021/09/26 10:16:07;;;;;;;11.00;9.90;;;18.10;76.30;;;;;;4999707;28;20544;-78
2021/09/26 10:18:34;;;;;;;10.05;9.05;;;18.20;76.30;;;;;;4979145;28;20042;-80
2021/09/26 10:21:03;;;;;;;9.88;8.88;;;18.30;76.30;;;;;;4978104;28;20087;-79
2021/09/26 10:23:29;;;;;;;11.05;9.77;;;18.40;76.30;;;;;;4982539;28;20084;-79
2021/09/26 10:25:57;;;;;;;10.50;9.43;;;18.60;76.50;;;;;;4999185;28;20299;-79
2021/09/26 10:28:28;;;;;;;10.35;9.25;;;18.80;76.50;;;;;;4989668;28;20030;-80
2021/09/26 10:30:56;;;;;;;10.05;9.05;;;18.90;76.30;;;;;;4996992;28;20371;-78
2021/09/26 10:33:24;;;;;;;9.98;9.07;;;19.00;76.10;;;;;;4984305;28;20102;-79
2021/09/26 10:35:53;;;;;;;11.65;10.50;;;19.20;76.10;;;;;;5001021;28;20076;-77
2021/09/26 10:38:20;;;;;;;10.35;9.25;;;19.30;76.10;;;;;;4993498;28;20076;-77
2021/09/26 10:40:46;;;;;;;10.00;9.00;;;19.40;76.00;;;;;;4996762;28;20026;-75
2021/09/26 10:43:25;;;;;;;9.18;8.35;;;19.50;75.80;;;;;;4983688;28;20144;-78
2021/09/26 10:46:20;;;;;;;9.95;9.05;;;19.70;75.80;;;;;;4986318;28;20033;-78
2021/09/26 10:48:56;;;;;;;13.65;12.32;;;19.90;75.70;;;;;;5004368;28;20054;-79
2021/09/26 10:51:46;;;;;;;16.98;15.48;;;20.00;75.50;;;;;;4981743;28;20077;-78
2021/09/26 10:54:22;;;;;;;13.50;12.30;;;20.20;75.50;;;;;;4993903;28;20045;-78
2021/09/26 10:57:03;;;;;;;13.52;12.23;;;20.40;75.40;;;;;;4989048;28;20030;-78
2021/09/26 10:59:46;;;;;;;13.43;12.13;;;20.50;75.10;;;;;;4997526;28;20042;-81
2021/09/26 11:02:25;;;;;;;13.65;12.38;;;20.50;74.80;;;;;;4986349;28;20042;-79
2021/09/26 11:05:04;;;;;;;12.80;11.63;;;20.60;74.80;;;;;;4988054;28;20034;-79
2021/09/26 11:07:33;;;;;;;15.13;13.82;;;20.60;74.60;;;;;;4969336;28;20026;-79
2021/09/26 11:10:02;;;;;;;13.65;12.40;;;20.70;74.60;;;;;;4970527;28;20118;-78
2021/09/26 11:12:43;;;;;;;12.10;11.00;;;20.80;74.50;;;;;;4978070;28;20037;-78
2021/09/26 11:15:17;;;;;;;11.38;10.48;;;20.90;74.20;;;;;;4972539;28;20026;-78
2021/09/26 11:17:48;;;;;;;11.30;10.20;;;20.90;74.10;;;;;;4969523;28;20060;-79
2021/09/26 11:20:26;;;;;;;14.10;12.75;;;21.00;74.10;;;;;;4986028;28;20039;-78
2021/09/26 11:23:04;;;;;;;12.48;11.38;;;21.00;73.90;;;;;;4997270;28;20069;-78
2021/09/26 11:25:55;;;;;;;13.25;12.15;;;21.10;73.90;;;;;;4992092;28;20035;-79
2021/09/26 11:28:37;;;;;;;13.02;11.93;;;21.10;73.70;;;;;;4988887;28;20039;-79
2021/09/26 11:31:05;;;;;;;12.15;11.15;;;21.20;73.70;;;;;;4980367;28;20041;-79
2021/09/26 11:34:10;;;;;;;11.98;10.98;;;21.20;73.60;;;;;;5000009;28;20057;-79
2021/09/26 11:36:52;;;;;;;12.20;11.20;;;21.20;73.50;;;;;;4953589;28;20046;-79
2021/09/26 11:39:28;;;;;;;12.40;11.40;;;21.30;73.50;;;;;;5007333;28;20108;-79
2021/09/26 11:41:55;;;;;;;13.25;12.15;;;21.30;73.40;;;;;;5010892;28;20044;-79
2021/09/26 11:44:21;;;;;;;13.10;11.98;;;21.30;73.40;;;;;;5006123;28;20537;-80
2021/09/26 11:46:50;;;;;;;12.15;11.05;;;21.30;73.30;;;;;;5008548;28;20029;-80
2021/09/26 11:49:19;;;;;;;11.52;10.63;;;21.30;73.20;;;;;;4976106;28;20080;-78
2021/09/26 11:51:48;;;;;;;11.70;10.70;;;21.40;73.30;;;;;;4993498;28;20497;-79
2021/09/26 11:54:15;;;;;;;11.93;10.93;;;21.40;73.20;;;;;;4976314;28;20156;-78
2021/09/26 11:56:42;;;;;;;12.48;11.35;;;21.40;73.10;;;;;;4989058;28;20023;-78
2021/09/26 11:59:10;;;;;;;11.30;10.35;;;21.40;73.00;;;;;;4992221;28;20137;-79
2021/09/26 12:01:45;;;;;;;11.43;10.32;;;21.50;73.00;;;;;;4993031;28;20389;-79
2021/09/26 12:04:15;;;;;;;10.45;9.63;;;21.60;73.00;;;;;;4992006;28;20184;-78
2021/09/26 12:06:48;;;;;;;10.85;9.85;;;21.70;73.00;;;;;;4992565;28;20120;-78
2021/09/26 12:09:32;;;;;;;10.43;9.60;;;21.80;72.90;;;;;;4994241;28;20042;-79
2021/09/26 12:11:59;;;;;;;9.88;8.98;;;21.90;72.80;;;;;;4988732;28;20137;-78
2021/09/26 12:14:29;;;;;;;10.25;9.35;;;21.90;72.60;;;;;;4990161;28;20454;-78
2021/09/26 12:17:01;;;;;;;8.60;7.90;;;22.00;72.60;;;;;;4997108;28;20030;-78
2021/09/26 12:19:28;;;;;;;10.65;9.57;;;22.00;72.50;;;;;;4993168;28;20042;-78
2021/09/26 12:22:00;;;;;;;9.00;8.20;;;22.00;72.40;;;;;;4989134;28;20485;-79
2021/09/26 12:24:36;;;;;;;9.25;8.35;;;22.00;72.30;;;;;;4989368;28;20068;-78
2021/09/26 12:27:31;;;;;;;9.48;8.68;;;22.10;72.40;;;;;;4989374;28;20026;-79
2021/09/26 12:29:59;;;;;;;9.65;8.95;;;22.20;72.80;;;;;;4975787;28;20038;-77
2021/09/26 12:32:29;;;;;;;9.95;8.95;;;22.40;72.40;;;;;;5004008;28;20090;-77
2021/09/26 12:34:57;;;;;;;9.27;8.45;;;22.50;72.30;;;;;;4984175;28;20042;-78
2021/09/26 12:37:29;;;;;;;8.57;7.88;;;22.60;72.20;;;;;;4976310;28;20031;-79
2021/09/26 12:39:59;;;;;;;7.72;7.13;;;22.70;72.10;;;;;;4993420;28;20042;-77
2021/09/26 12:42:29;;;;;;;9.00;8.20;;;22.80;72.10;;;;;;4990902;28;20511;-78